Time;durP1;ratioP1;P1;durP2;ratioP2;P2;SDS_P1;SDS_P2;PMS_P1;PMS_P2;Temp;Humidity;BMP_temperature;BMP_pressure;BME280_temperature;BME280_humidity;BME280_pressure;Samples;Min_cycle;Max_cycle;Signal;HPM_P1;HPM_P2
2022/01/05 00:01:59;;;;;;;13.48;3.53;;;;;;;1.33;96.66;99909.53;5016115;28;20014;-96
2022/01/05 00:04:25;;;;;;;12.65;3.63;;;;;;;1.14;96.43;99890.84;5004686;28;20026;-96
2022/01/05 00:06:50;;;;;;;8.15;2.90;;;;;;;1.11;96.49;99902.25;4994851;28;20065;-95
2022/01/05 00:09:16;;;;;;;11.30;2.95;;;;;;;1.10;96.88;99903.16;4990970;28;20095;-95
2022/01/05 00:11:42;;;;;;;9.70;2.47;;;;;;;1.47;96.66;99965.09;4995155;28;20023;-95
2022/01/05 00:16:42;;;;;;;7.85;2.50;;;;;;;0.94;96.82;99896.63;5013449;23;20062;-96
2022/01/05 00:19:11;;;;;;;11.50;3.15;;;;;;;0.94;96.77;99905.34;5000345;28;20074;-96
2022/01/05 00:21:40;;;;;;;10.75;3.03;;;;;;;0.85;96.08;99883.78;5661415;22;20008;-95
2022/01/05 00:24:06;;;;;;;9.07;3.03;;;;;;;0.92;96.42;99890.53;5155692;22;20098;-96
2022/01/05 00:26:32;;;;;;;7.13;2.67;;;;;;;0.89;96.54;99888.03;4997969;28;20030;-96
2022/01/05 00:29:01;;;;;;;7.88;2.65;;;;;;;0.81;96.53;99879.50;5532239;23;20042;-96
2022/01/05 00:31:30;;;;;;;18.95;3.50;;;;;;;1.15;96.16;99940.59;5014341;28;20019;-96
2022/01/05 00:33:55;;;;;;;13.95;3.55;;;;;;;0.88;95.75;99902.00;5261146;22;20023;-83
2022/01/05 00:38:56;;;;;;;14.55;3.60;;;;;;;1.22;94.89;99970.13;5166700;23;19924;-95
2022/01/05 00:43:57;;;;;;;10.38;3.20;;;;;;;0.71;95.38;99913.81;5189662;22;20062;-96
2022/01/05 00:46:22;;;;;;;11.73;2.75;;;;;;;0.54;94.98;99895.03;5022064;28;20053;-96
2022/01/05 01:32:45;;;;;;;16.17;3.55;;;;;;;0.02;94.01;99932.91;5820834;22;20845;-96
2022/01/05 01:35:11;;;;;;;11.65;3.45;;;;;;;-0.07;93.94;99922.66;5520695;22;20020;-90
2022/01/05 01:37:37;;;;;;;7.78;3.72;;;;;;;-0.06;94.27;99932.22;5754366;22;20020;-91
2022/01/05 02:34:21;;;;;;;10.50;3.10;;;;;;;-0.16;93.27;100007.41;5453806;22;20043;-94
2022/01/05 03:15:37;;;;;;;12.68;3.20;;;;;;;-0.82;94.02;99982.53;5736677;22;20067;-96
2022/01/05 03:18:04;;;;;;;10.38;3.38;;;;;;;-0.33;94.06;100074.88;5110794;23;20045;-95
2022/01/05 03:23:04;;;;;;;9.13;2.80;;;;;;;-0.74;94.10;100023.34;5541119;22;20034;-96
2022/01/05 03:25:30;;;;;;;13.15;3.22;;;;;;;-0.58;94.50;100043.09;5554778;22;20122;-96
2022/01/05 03:28:01;;;;;;;10.77;2.97;;;;;;;-0.30;94.16;100093.97;5264568;23;20037;-95
2022/01/05 03:30:33;;;;;;;12.70;2.70;;;;;;;-0.80;93.77;100025.16;5365082;22;20054;-96
2022/01/05 03:35:36;;;;;;;12.52;3.30;;;;;;;-0.55;93.26;100056.94;5324918;22;20042;-96
2022/01/05 03:38:03;;;;;;;16.08;3.80;;;;;;;-0.74;92.52;100023.34;5285080;23;20373;-95
2022/01/05 03:40:30;;;;;;;10.48;3.17;;;;;;;-0.47;92.62;100063.78;5207118;22;20073;-95
2022/01/05 03:42:56;;;;;;;9.52;2.78;;;;;;;-0.34;92.42;100078.38;5014855;28;20073;-95
2022/01/05 03:45:22;;;;;;;11.98;2.95;;;;;;;-0.53;91.59;100046.50;5016624;28;20014;-95
2022/01/05 03:47:47;;;;;;;8.35;2.85;;;;;;;-0.58;91.08;100041.34;5013842;28;20034;-96
2022/01/05 04:05:38;;;;;;;14.10;3.50;;;;;;;-0.41;90.63;100072.41;5707409;23;20298;-94
2022/01/05 04:19:19;;;;;;;13.75;3.50;;;;;;;-0.36;89.94;100052.25;6097435;22;20020;-84
2022/01/05 04:24:19;;;;;;;13.30;3.10;;;;;;;-0.39;90.16;100067.13;5697818;22;20046;-95
2022/01/05 04:26:48;;;;;;;12.13;3.13;;;;;;;-0.43;89.57;100062.84;5040551;28;20038;-96
2022/01/05 04:36:59;;;;;;;10.05;3.20;;;;;;;-0.48;89.96;100077.78;6044157;23;20017;-94
2022/01/05 04:50:41;;;;;;;11.80;3.42;;;;;;;-0.65;90.08;100065.84;5976228;23;20024;-96
2022/01/05 04:53:11;;;;;;;12.07;3.38;;;;;;;-0.40;90.46;100120.31;5246972;23;20016;-95
2022/01/05 04:55:38;;;;;;;14.90;3.40;;;;;;;-0.67;91.03;100082.44;5311111;23;20046;-96
2022/01/05 04:58:04;;;;;;;11.70;3.47;;;;;;;-0.38;91.41;100129.00;5725114;23;20121;-96
2022/01/05 05:00:29;;;;;;;19.58;3.85;;;;;;;-0.78;91.14;100073.03;5135748;23;20080;-96
2022/01/05 05:11:30;;;;;;;10.80;3.80;;;;;;;-0.56;91.49;100089.22;5509477;22;20088;-94
2022/01/05 05:24:16;;;;;;;11.43;3.83;;;;;;;-0.38;90.92;100085.41;5379605;23;20043;-96
2022/01/05 05:29:20;;;;;;;14.65;3.83;;;;;;;-0.16;91.05;100104.19;5134847;23;20096;-96
2022/01/05 05:36:50;;;;;;;14.57;4.35;;;;;;;0.14;90.70;100139.38;5495185;23;20062;-95
2022/01/05 05:39:17;;;;;;;13.70;4.25;;;;;;;0.16;90.34;100124.47;4993952;28;20063;-95
2022/01/05 05:41:44;;;;;;;20.63;4.75;;;;;;;0.03;90.02;100093.34;5563858;23;20057;-96
2022/01/05 05:44:10;;;;;;;17.00;4.20;;;;;;;0.37;89.86;100138.03;5668864;22;20118;-94
2022/01/05 06:12:29;;;;;;;12.05;4.18;;;;;;;0.24;89.56;100114.72;5530260;22;20275;-96
2022/01/05 06:30:26;;;;;;;13.68;4.70;;;;;;;0.81;89.22;100202.59;5244661;23;20063;-95
2022/01/05 06:32:51;;;;;;;12.52;3.60;;;;;;;0.58;89.08;100165.53;5023809;28;20370;-93
2022/01/05 06:35:19;;;;;;;15.35;4.45;;;;;;;0.68;89.62;100182.78;5014060;28;20037;-91
2022/01/05 06:37:45;;;;;;;12.68;3.88;;;;;;;0.74;89.47;100200.97;5011825;28;20037;-89
2022/01/05 06:40:10;;;;;;;14.15;4.25;;;;;;;0.79;89.54;100220.06;5009379;28;20030;-88
2022/01/05 06:42:36;;;;;;;15.10;3.47;;;;;;;0.82;90.35;100220.03;5005120;28;20030;-87
2022/01/05 06:45:01;;;;;;;12.70;3.70;;;;;;;0.75;89.65;100223.66;4988423;28;20195;-88
2022/01/05 06:47:26;;;;;;;18.55;5.03;;;;;;;0.75;90.21;100215.78;4993285;28;20360;-88
2022/01/05 06:49:52;;;;;;;11.40;3.75;;;;;;;0.82;90.29;100225.25;4983262;28;20136;-87
2022/01/05 06:52:17;;;;;;;12.90;3.80;;;;;;;0.85;90.36;100230.44;5009540;28;20037;-96
2022/01/05 06:54:42;;;;;;;14.98;4.25;;;;;;;0.86;90.28;100237.41;5009567;28;20034;-92
2022/01/05 06:57:09;;;;;;;15.98;3.88;;;;;;;0.86;89.89;100226.91;5005987;28;20086;-89
2022/01/05 06:59:35;;;;;;;17.55;4.78;;;;;;;0.81;89.96;100225.31;4998574;28;20039;-89
2022/01/05 07:02:01;;;;;;;14.75;4.03;;;;;;;0.86;90.33;100232.16;4993026;28;20034;-89
2022/01/05 07:04:26;;;;;;;10.73;3.97;;;;;;;0.86;90.05;100233.91;5008870;28;20024;-88
2022/01/05 07:06:51;;;;;;;9.20;3.35;;;;;;;0.88;90.32;100234.75;4999561;28;20045;-89
2022/01/05 07:09:17;;;;;;;11.95;3.90;;;;;;;0.88;90.41;100242.59;4989690;28;20030;-90
2022/01/05 07:11:43;;;;;;;15.10;4.05;;;;;;;0.90;90.22;100246.06;5001791;28;20455;-89
2022/01/05 07:14:08;;;;;;;15.88;4.30;;;;;;;0.90;90.11;100260.03;5017949;28;20018;-90
2022/01/05 07:16:33;;;;;;;16.05;4.82;;;;;;;0.91;90.26;100260.88;5017039;28;20052;-89
2022/01/05 07:18:59;;;;;;;18.73;5.25;;;;;;;0.86;90.62;100260.13;4991262;28;20022;-89
2022/01/05 07:21:24;;;;;;;20.98;4.80;;;;;;;0.92;90.46;100255.63;5008140;28;20026;-90
2022/01/05 07:23:49;;;;;;;12.20;3.75;;;;;;;0.93;90.45;100249.50;4990721;28;20034;-90
2022/01/05 07:26:15;;;;;;;15.18;5.10;;;;;;;0.91;90.37;100246.03;5006444;28;20030;-89
2022/01/05 07:28:40;;;;;;;16.45;4.30;;;;;;;0.98;90.11;100260.72;5008845;28;20205;-93
2022/01/05 07:31:05;;;;;;;15.82;4.55;;;;;;;0.96;90.75;100265.16;5008116;28;20073;-91
2022/01/05 07:33:31;;;;;;;14.73;4.90;;;;;;;0.99;90.65;100280.78;5010692;28;20525;-93
2022/01/05 07:35:56;;;;;;;17.15;4.28;;;;;;;1.02;90.68;100274.63;5007540;28;20026;-92
2022/01/05 07:38:22;;;;;;;9.88;4.15;;;;;;;1.04;90.83;100271.97;5010020;28;20431;-93
2022/01/05 07:40:47;;;;;;;13.80;4.85;;;;;;;1.05;90.66;100276.34;5009039;28;20026;-93
2022/01/05 07:43:12;;;;;;;13.90;3.80;;;;;;;1.04;90.69;100277.22;5008994;28;20069;-90
2022/01/05 07:45:37;;;;;;;17.58;4.32;;;;;;;1.11;90.60;100284.06;5006123;28;20388;-88
2022/01/05 07:48:04;;;;;;;12.82;3.63;;;;;;;1.12;90.20;100289.25;4991231;28;20026;-89
2022/01/05 07:50:29;;;;;;;14.40;4.90;;;;;;;1.11;90.25;100284.91;4998731;28;20026;-90
2022/01/05 07:52:54;;;;;;;13.77;4.68;;;;;;;1.15;90.53;100288.34;4989628;28;20498;-90
2022/01/05 07:55:20;;;;;;;15.70;3.85;;;;;;;1.14;90.36;100281.38;4996909;28;20042;-90
2022/01/05 07:57:45;;;;;;;9.88;4.03;;;;;;;1.20;90.42;100284.72;4972125;28;20022;-92
2022/01/05 08:00:11;;;;;;;14.38;4.22;;;;;;;1.15;90.53;100285.72;4991743;28;20030;-92
2022/01/05 08:02:36;;;;;;;14.88;4.57;;;;;;;1.11;90.84;100284.91;5010523;28;20032;-92
2022/01/05 08:05:02;;;;;;;15.15;4.28;;;;;;;1.15;91.21;100304.06;5006245;28;20026;-93
2022/01/05 08:07:28;;;;;;;13.13;3.97;;;;;;;1.23;91.11;100296.91;5010130;28;20071;-94
2022/01/05 08:09:53;;;;;;;14.93;5.03;;;;;;;1.28;90.99;100288.94;5020315;28;20085;-96
2022/01/05 08:12:18;;;;;;;16.13;4.40;;;;;;;1.35;90.83;100296.66;5001091;28;20064;-95
2022/01/05 08:14:44;;;;;;;15.98;4.53;;;;;;;1.40;90.96;100304.41;4994664;28;20152;-95
2022/01/05 08:17:09;;;;;;;11.73;4.22;;;;;;;1.45;90.89;100316.50;5005108;28;20030;-95
2022/01/05 08:19:34;;;;;;;14.00;5.50;;;;;;;1.51;90.28;100315.53;5008341;28;20368;-95
2022/01/05 08:21:59;;;;;;;17.55;6.18;;;;;;;1.57;90.64;100331.13;5002677;28;20025;-95
2022/01/05 08:24:26;;;;;;;18.75;4.88;;;;;;;1.55;91.01;100316.31;5009290;28;20058;-94
2022/01/05 08:26:52;;;;;;;16.02;4.30;;;;;;;1.66;90.45;100328.28;5009301;28;20071;-94
2022/01/05 08:29:17;;;;;;;14.40;3.95;;;;;;;1.63;90.39;100324.88;5007841;28;20404;-93
2022/01/05 08:31:42;;;;;;;19.85;4.75;;;;;;;1.68;90.31;100329.13;5011822;28;20032;-95
2022/01/05 08:34:08;;;;;;;16.27;4.40;;;;;;;1.67;90.43;100329.16;5010889;28;20100;-96
2022/01/05 08:36:33;;;;;;;20.10;4.70;;;;;;;1.68;90.85;100334.38;5008389;28;20475;-96
2022/01/05 08:39:00;;;;;;;17.67;4.75;;;;;;;1.59;90.77;100318.84;5017487;28;20026;-95
2022/01/05 08:41:25;;;;;;;13.68;4.57;;;;;;;1.69;90.57;100338.72;5024747;28;20022;-94
2022/01/05 08:43:50;;;;;;;18.67;4.93;;;;;;;1.74;90.57;100339.47;4996462;28;20030;-91
2022/01/05 08:46:16;;;;;;;18.80;4.47;;;;;;;1.74;90.84;100336.00;5008420;28;20483;-90
2022/01/05 08:48:43;;;;;;;16.55;5.68;;;;;;;1.75;91.06;100337.72;5006667;28;20028;-90
2022/01/05 08:51:08;;;;;;;16.83;4.55;;;;;;;1.83;91.22;100341.03;4992314;28;20353;-89
2022/01/05 08:53:33;;;;;;;17.98;5.43;;;;;;;1.87;91.09;100336.56;5006562;28;20032;-89
2022/01/05 08:55:58;;;;;;;19.15;4.28;;;;;;;1.91;91.37;100346.94;5004203;28;20029;-89
2022/01/05 08:58:25;;;;;;;10.13;4.07;;;;;;;2.02;90.82;100348.47;5002216;28;20380;-89
2022/01/05 09:00:50;;;;;;;16.05;4.82;;;;;;;1.99;90.02;100342.38;5007911;28;20038;-89
2022/01/05 09:03:16;;;;;;;14.20;3.97;;;;;;;2.12;90.31;100349.97;5009364;28;20418;-95
2022/01/05 09:05:42;;;;;;;17.02;4.53;;;;;;;2.12;90.02;100350.84;5011580;28;20538;-91
2022/01/05 09:08:07;;;;;;;14.48;4.15;;;;;;;2.19;89.67;100360.31;5010943;28;20121;-90
2022/01/05 09:10:34;;;;;;;15.35;4.47;;;;;;;2.19;89.75;100348.94;5016677;28;20030;-95
2022/01/05 09:13:00;;;;;;;14.25;4.05;;;;;;;2.09;89.72;100352.66;5023095;28;20085;-95
2022/01/05 09:15:26;;;;;;;18.63;4.57;;;;;;;2.09;90.13;100358.81;5018965;28;20064;-93
2022/01/05 09:17:52;;;;;;;14.85;4.55;;;;;;;2.17;90.17;100355.97;4997165;28;20514;-93
2022/01/05 09:20:18;;;;;;;14.05;4.78;;;;;;;2.49;89.58;100369.19;5017062;28;20036;-95
2022/01/05 09:22:43;;;;;;;16.33;4.60;;;;;;;2.67;88.25;100353.84;5015949;28;20022;-91
2022/01/05 09:25:10;;;;;;;11.30;4.30;;;;;;;2.84;87.72;100362.13;5014003;28;20333;-94
2022/01/05 09:27:37;;;;;;;17.17;4.88;;;;;;;2.93;87.42;100361.91;5003794;28;20041;-95
2022/01/05 09:30:05;;;;;;;19.30;4.30;;;;;;;2.99;87.11;100368.75;5006414;28;20108;-91
2022/01/05 09:32:30;;;;;;;16.38;4.00;;;;;;;3.03;87.33;100353.75;5021232;28;20026;-88
2022/01/05 09:34:56;;;;;;;18.10;4.70;;;;;;;3.13;86.84;100357.84;5025389;28;20037;-96
2022/01/05 09:37:28;;;;;;;19.90;5.45;;;;;;;3.16;86.93;100357.75;5028266;28;20057;-95
2022/01/05 09:41:56;;;;;;;13.43;4.63;;;;;;;3.27;86.26;100373.25;5028955;28;20033;-96
2022/01/05 09:42:40;;;;;;;15.73;4.70;;;;;;;3.30;86.20;100370.53;5030565;28;20042;-96
2022/01/05 09:45:15;;;;;;;17.17;4.18;;;;;;;3.43;86.01;100383.28;5029571;28;20030;-96
2022/01/05 09:48:19;;;;;;;13.77;4.18;;;;;;;3.44;86.61;100394.69;5054427;28;20038;-95
2022/01/05 09:50:54;;;;;;;15.02;3.80;;;;;;;2.98;87.19;100335.50;5323082;22;21513;-85
2022/01/05 09:53:21;;;;;;;15.45;4.82;;;;;;;2.95;87.32;100357.44;5292686;22;20131;-82
2022/01/05 09:55:51;;;;;;;16.67;4.28;;;;;;;2.71;88.10;100348.44;5010867;28;20488;-96
2022/01/05 09:58:18;;;;;;;17.00;4.55;;;;;;;2.80;89.14;100364.88;5082581;23;20113;-96
2022/01/05 10:00:44;;;;;;;15.50;4.50;;;;;;;2.65;89.00;100347.78;5205626;23;20046;-89
2022/01/05 10:03:10;;;;;;;12.70;4.20;;;;;;;2.58;89.50;100349.69;5013279;28;20256;-96
2022/01/05 10:05:35;;;;;;;17.67;4.32;;;;;;;2.48;90.89;100345.59;5679762;22;20128;-91
2022/01/05 10:10:36;;;;;;;17.00;3.85;;;;;;;2.91;89.58;100403.13;5752844;23;20044;-96
2022/01/05 10:13:02;;;;;;;15.00;3.17;;;;;;;2.53;88.71;100348.09;5404649;22;20397;-96
2022/01/05 10:25:48;;;;;;;18.35;4.13;;;;;;;2.93;90.95;100411.84;4990901;23;20042;-96
2022/01/05 10:28:13;;;;;;;13.70;3.50;;;;;;;3.01;89.79;100427.44;4978354;28;20685;-94
2022/01/05 10:30:41;;;;;;;15.13;3.78;;;;;;;3.05;90.36;100417.66;4971307;28;20023;-93
2022/01/05 10:33:07;;;;;;;14.23;3.50;;;;;;;3.17;88.60;100427.84;4984813;28;20377;-96
2022/01/05 10:35:34;;;;;;;11.70;3.60;;;;;;;3.20;89.00;100448.81;4974286;28;20043;-95
2022/01/05 10:38:03;;;;;;;20.70;4.20;;;;;;;3.27;87.47;100417.97;4964394;28;20045;-93
2022/01/05 10:40:35;;;;;;;12.20;2.85;;;;;;;3.40;87.18;100433.38;4975467;28;20046;-94
2022/01/05 10:43:10;;;;;;;14.45;3.63;;;;;;;3.47;86.55;100434.94;4978692;28;20225;-96
2022/01/05 10:45:41;;;;;;;13.70;3.45;;;;;;;3.57;86.75;100429.41;4979440;28;20033;-94
2022/01/05 10:48:18;;;;;;;18.08;3.50;;;;;;;3.66;85.81;100437.03;4963658;28;20026;-92
2022/01/05 10:50:45;;;;;;;16.38;3.88;;;;;;;3.75;85.25;100416.53;4968102;28;20058;-94
2022/01/05 10:53:16;;;;;;;14.75;3.20;;;;;;;3.97;84.02;100431.69;4971244;28;20042;-96
2022/01/05 10:55:44;;;;;;;19.27;4.72;;;;;;;3.99;83.86;100428.13;4973843;28;20062;-96
2022/01/05 10:58:11;;;;;;;14.85;3.67;;;;;;;4.02;83.24;100434.22;4963785;28;20054;-96
2022/01/05 11:00:39;;;;;;;17.95;3.58;;;;;;;3.94;82.55;100439.72;4970052;28;20027;-95
2022/01/05 11:03:39;;;;;;;15.32;3.40;;;;;;;3.98;82.92;100457.16;4965613;28;20027;-91
2022/01/05 11:06:14;;;;;;;17.88;3.33;;;;;;;4.05;82.81;100465.69;4955556;28;20030;-92
2022/01/05 11:08:57;;;;;;;14.52;3.67;;;;;;;4.05;83.05;100465.69;4966401;28;20023;-92
2022/01/05 11:11:31;;;;;;;13.63;3.45;;;;;;;4.01;82.36;100472.81;4972885;28;20094;-92
2022/01/05 11:13:57;;;;;;;16.20;3.13;;;;;;;4.11;82.47;100492.72;5018831;23;20066;-92
2022/01/05 11:16:26;;;;;;;17.65;4.25;;;;;;;4.26;81.30;100462.41;4993528;28;20038;-95
2022/01/05 11:19:11;;;;;;;17.95;3.78;;;;;;;4.38;81.66;100454.13;4994601;28;20022;-93
2022/01/05 11:21:38;;;;;;;17.80;3.63;;;;;;;4.53;79.78;100460.69;4996550;28;20021;-95
2022/01/05 11:24:04;;;;;;;10.27;3.15;;;;;;;4.55;79.14;100464.13;4995409;28;20034;-92
2022/01/05 11:26:30;;;;;;;12.40;2.90;;;;;;;4.57;79.58;100474.66;4970494;28;20472;-84
2022/01/05 11:28:55;;;;;;;13.10;2.95;;;;;;;4.61;80.26;100485.03;4969432;28;20034;-84
2022/01/05 11:31:21;;;;;;;15.07;4.18;;;;;;;4.59;79.34;100493.88;4986046;28;21141;-84
2022/01/05 11:33:47;;;;;;;15.05;3.58;;;;;;;4.58;79.85;100481.63;4977250;28;20039;-84
2022/01/05 11:36:13;;;;;;;14.18;2.90;;;;;;;4.55;78.32;100456.22;4981602;28;20049;-96
2022/01/05 11:38:38;;;;;;;13.00;3.00;;;;;;;4.57;78.98;100482.56;5001910;28;20116;-96
2022/01/05 11:41:05;;;;;;;11.63;3.00;;;;;;;4.50;79.08;100473.97;5000760;28;20032;-96
2022/01/05 11:43:33;;;;;;;12.13;3.10;;;;;;;4.25;79.13;100445.75;5058087;23;20030;-94
2022/01/05 11:46:13;;;;;;;16.85;3.58;;;;;;;4.50;80.01;100490.63;5014846;28;20129;-89
2022/01/05 11:48:40;;;;;;;17.58;3.38;;;;;;;4.57;79.79;100493.09;5009902;28;20056;-92
2022/01/05 11:51:06;;;;;;;14.00;3.58;;;;;;;4.57;79.23;100490.47;4983451;28;20034;-96
2022/01/05 11:53:43;;;;;;;14.65;3.90;;;;;;;4.62;78.50;100507.84;5003578;28;20093;-86
2022/01/05 11:56:11;;;;;;;13.50;3.25;;;;;;;4.66;79.71;100498.06;4987910;28;20097;-86
2022/01/05 11:58:54;;;;;;;13.93;3.33;;;;;;;4.64;79.29;100507.78;4995615;28;21533;-89
2022/01/05 12:01:22;;;;;;;15.85;3.80;;;;;;;4.52;79.53;100498.50;4989707;28;20034;-87
2022/01/05 12:03:50;;;;;;;12.88;3.58;;;;;;;4.57;79.62;100503.63;4990930;28;20048;-86
2022/01/05 12:06:16;;;;;;;10.10;3.30;;;;;;;4.59;79.16;100505.28;5016206;28;20029;-96
2022/01/05 12:08:44;;;;;;;18.38;3.30;;;;;;;4.61;79.72;100513.19;4991342;28;20116;-96
2022/01/05 12:13:47;;;;;;;14.95;3.35;;;;;;;4.57;79.88;100506.28;4996715;23;20431;-92
2022/01/05 12:16:12;;;;;;;14.45;3.20;;;;;;;4.55;79.83;100502.81;5044857;23;20062;-79
2022/01/05 12:18:38;;;;;;;17.73;3.30;;;;;;;4.37;79.55;100470.84;5060437;23;20038;-96
2022/01/05 12:21:03;;;;;;;19.42;3.60;;;;;;;4.68;80.43;100519.94;5167208;23;20046;-94
2022/01/05 12:23:32;;;;;;;15.65;3.80;;;;;;;4.85;79.28;100532.59;4993046;28;20057;-96
2022/01/05 12:26:00;;;;;;;18.17;4.13;;;;;;;5.01;78.79;100533.81;4991140;28;20022;-94
2022/01/05 12:28:28;;;;;;;19.83;4.05;;;;;;;4.93;78.52;100546.41;4996913;28;20038;-93
2022/01/05 12:30:54;;;;;;;15.52;3.50;;;;;;;4.87;78.76;100536.06;4995844;28;20026;-95
2022/01/05 12:33:19;;;;;;;13.75;3.90;;;;;;;4.81;79.61;100538.88;4989142;28;20041;-93
2022/01/05 12:36:05;;;;;;;13.45;3.53;;;;;;;4.80;79.14;100540.66;4972209;28;20030;-92
2022/01/05 12:38:54;;;;;;;14.35;3.55;;;;;;;4.72;79.97;100548.84;4971906;28;20046;-90
2022/01/05 12:41:23;;;;;;;16.10;3.35;;;;;;;4.68;80.38;100546.31;4999750;28;20018;-92
2022/01/05 12:43:50;;;;;;;13.98;3.40;;;;;;;4.62;80.17;100542.09;4987346;28;20030;-89
2022/01/05 12:46:32;;;;;;;20.05;3.85;;;;;;;4.65;80.44;100538.53;4994243;28;20093;-96
2022/01/05 12:48:59;;;;;;;12.13;3.47;;;;;;;4.59;80.65;100529.00;5025313;28;20017;-96
2022/01/05 12:51:46;;;;;;;18.10;3.63;;;;;;;4.65;80.94;100543.81;5051807;23;20050;-96
2022/01/05 12:54:22;;;;;;;13.50;3.75;;;;;;;4.64;80.41;100550.84;5024154;28;20510;-96
2022/01/05 12:56:55;;;;;;;15.73;4.07;;;;;;;4.59;80.10;100562.44;5013729;28;20073;-96
2022/01/05 12:59:33;;;;;;;16.00;3.65;;;;;;;4.55;80.95;100561.66;5031519;28;20313;-95
2022/01/05 13:02:12;;;;;;;11.73;3.25;;;;;;;4.49;81.16;100562.72;5013692;28;20150;-94
2022/01/05 13:04:42;;;;;;;16.48;3.35;;;;;;;4.47;80.88;100569.81;5367533;23;20112;-96
2022/01/05 13:07:07;;;;;;;18.27;4.05;;;;;;;4.38;81.33;100551.63;5001784;28;20035;-95
2022/01/05 13:09:41;;;;;;;21.40;4.25;;;;;;;4.44;81.66;100561.13;5011858;28;20102;-96
2022/01/05 13:12:12;;;;;;;15.75;3.42;;;;;;;4.44;81.49;100569.91;4992542;28;20038;-83
2022/01/05 13:14:40;;;;;;;17.45;3.75;;;;;;;4.48;81.94;100570.69;4999212;28;20077;-95
2022/01/05 13:17:19;;;;;;;17.02;3.65;;;;;;;4.50;82.26;100579.38;4996089;28;20046;-92
2022/01/05 13:22:28;;;;;;;15.02;3.33;;;;;;;4.40;82.67;100584.06;5026023;28;20057;-90
2022/01/05 13:24:55;;;;;;;18.02;5.53;;;;;;;4.41;82.84;100588.44;5006810;28;20031;-90
2022/01/05 13:27:27;;;;;;;19.23;4.25;;;;;;;4.34;82.70;100568.44;5101938;23;20133;-95
2022/01/05 13:29:53;;;;;;;18.15;4.10;;;;;;;4.35;82.28;100578.09;4990167;28;20156;-91
2022/01/05 13:32:20;;;;;;;18.67;3.42;;;;;;;4.35;82.88;100586.00;4983712;28;20018;-92
2022/01/05 13:34:49;;;;;;;18.20;4.47;;;;;;;4.34;82.66;100589.50;4961966;28;20027;-81
2022/01/05 13:37:28;;;;;;;16.55;4.38;;;;;;;4.33;83.10;100587.78;4984035;28;20591;-93
2022/01/05 13:39:58;;;;;;;15.95;3.45;;;;;;;4.37;82.68;100594.69;4985250;28;20086;-91
2022/01/05 13:42:35;;;;;;;14.60;3.20;;;;;;;4.40;82.86;100606.94;4995886;28;20026;-91
2022/01/05 13:45:01;;;;;;;16.17;4.05;;;;;;;4.39;83.00;100610.44;4995254;28;20025;-95
2022/01/05 13:47:26;;;;;;;17.35;3.42;;;;;;;4.43;83.01;100628.78;4970581;28;20396;-90
2022/01/05 13:50:12;;;;;;;18.08;3.70;;;;;;;4.55;82.58;100613.50;4979902;28;20120;-91
2022/01/05 13:52:39;;;;;;;15.32;3.63;;;;;;;4.60;82.68;100612.47;4983880;28;20018;-92
2022/01/05 13:55:05;;;;;;;14.32;3.03;;;;;;;4.63;82.52;100615.00;4989498;28;20125;-89
2022/01/05 13:57:34;;;;;;;16.48;3.70;;;;;;;4.52;83.71;100606.56;4982000;28;20091;-87
2022/01/05 14:00:10;;;;;;;18.65;3.85;;;;;;;4.23;85.68;100599.53;4978874;28;20033;-93
2022/01/05 14:02:37;;;;;;;18.50;4.35;;;;;;;4.04;87.53;100616.72;4980691;28;20026;-96
2022/01/05 14:05:04;;;;;;;14.07;3.67;;;;;;;3.94;87.14;100647.72;5001199;28;20041;-94
2022/01/05 14:07:30;;;;;;;14.88;3.58;;;;;;;3.50;87.33;100574.28;5054314;23;1099961;-94
2022/01/05 14:10:09;;;;;;;15.40;3.20;;;;;;;3.85;87.75;100634.81;4991511;28;20068;-91
2022/01/05 14:12:36;;;;;;;18.63;3.53;;;;;;;3.77;89.03;100636.78;4994580;28;20098;-95
2022/01/05 14:15:03;;;;;;;13.63;3.55;;;;;;;3.74;88.63;100635.09;4983395;28;20031;-96
2022/01/05 14:17:29;;;;;;;16.52;3.97;;;;;;;3.56;89.98;100635.56;4978853;28;20494;-96
2022/01/05 14:20:14;;;;;;;18.40;4.40;;;;;;;3.60;89.21;100653.88;4980983;28;20043;-93
2022/01/05 14:22:40;;;;;;;11.80;4.10;;;;;;;3.61;90.43;100665.25;4992277;28;20033;-95
2022/01/05 14:25:06;;;;;;;14.45;3.92;;;;;;;3.59;90.48;100672.31;4996444;28;20034;-91
2022/01/05 14:27:36;;;;;;;18.38;3.92;;;;;;;3.53;89.97;100651.44;4997373;28;20034;-93
2022/01/05 14:30:07;;;;;;;18.23;3.88;;;;;;;3.59;89.64;100651.25;4991926;28;20022;-93
2022/01/05 14:32:36;;;;;;;17.67;3.60;;;;;;;3.62;90.44;100665.22;4994494;28;20161;-92
2022/01/05 14:35:11;;;;;;;21.70;4.38;;;;;;;3.70;90.78;100686.06;4972561;28;20018;-92
2022/01/05 14:37:53;;;;;;;14.90;4.38;;;;;;;3.66;91.92;100698.44;4982580;28;20033;-95
2022/01/05 14:40:28;;;;;;;22.95;4.85;;;;;;;3.59;94.36;100699.50;4973437;28;20049;-93
2022/01/05 14:42:59;;;;;;;18.48;3.83;;;;;;;3.47;94.56;100699.81;4984372;28;20044;-94
2022/01/05 14:45:26;;;;;;;18.13;4.07;;;;;;;3.44;95.34;100706.00;4981382;28;20036;-91
2022/01/05 14:47:51;;;;;;;21.45;4.28;;;;;;;3.34;96.19;100687.81;4990199;28;20026;-91
2022/01/05 14:50:18;;;;;;;17.13;3.83;;;;;;;3.32;95.61;100695.75;4985517;28;20097;-92
2022/01/05 14:52:43;;;;;;;17.70;4.43;;;;;;;3.25;96.31;100683.66;4985118;28;20387;-93
2022/01/05 14:55:10;;;;;;;18.70;4.70;;;;;;;3.32;97.13;100710.69;4979438;28;20097;-93
2022/01/05 14:57:35;;;;;;;18.85;4.15;;;;;;;3.25;97.05;100704.69;4971583;28;20041;-92
2022/01/05 15:00:01;;;;;;;14.32;4.55;;;;;;;3.29;97.76;100716.88;4971004;28;20383;-91
2022/01/05 15:02:26;;;;;;;20.50;5.00;;;;;;;3.26;97.42;100698.56;4982297;28;20034;-90
2022/01/05 15:04:51;;;;;;;16.42;4.90;;;;;;;3.21;97.84;100701.25;5000492;28;20027;-93
2022/01/05 15:07:17;;;;;;;18.27;4.68;;;;;;;3.27;98.06;100718.69;4991474;28;20407;-91
2022/01/05 15:09:42;;;;;;;14.07;4.50;;;;;;;3.20;98.13;100715.31;4986932;28;20298;-89
2022/01/05 15:12:10;;;;;;;20.98;4.72;;;;;;;3.27;97.90;100707.31;4969779;28;20022;-89
2022/01/05 15:14:35;;;;;;;25.92;4.55;;;;;;;3.30;97.96;100715.09;4987083;28;20057;-90
2022/01/05 15:17:00;;;;;;;22.55;4.60;;;;;;;3.26;98.00;100714.34;4976824;28;20457;-88
2022/01/05 15:19:25;;;;;;;22.15;4.93;;;;;;;3.32;98.03;100724.72;4982276;28;20030;-91
2022/01/05 15:21:51;;;;;;;21.90;4.97;;;;;;;3.28;98.27;100723.03;4989358;28;20200;-91
2022/01/05 15:24:16;;;;;;;22.95;5.20;;;;;;;3.32;98.60;100734.38;4990088;28;20392;-95
2022/01/05 15:26:41;;;;;;;18.58;4.40;;;;;;;3.29;98.72;100748.44;4969266;28;20037;-90
2022/01/05 15:29:07;;;;;;;24.65;5.13;;;;;;;3.21;98.04;100734.59;4992784;28;20002;-96
2022/01/05 15:31:32;;;;;;;20.02;4.90;;;;;;;3.27;98.71;100744.13;5013860;23;20117;-95
2022/01/05 15:33:57;;;;;;;26.58;4.72;;;;;;;3.14;98.76;100738.28;4967679;28;20026;-95
2022/01/05 15:36:24;;;;;;;24.38;4.78;;;;;;;3.23;98.54;100767.00;4970377;28;20041;-90
2022/01/05 15:38:49;;;;;;;18.30;4.55;;;;;;;3.23;98.51;100773.13;4975898;28;20038;-95
2022/01/05 15:41:15;;;;;;;24.23;5.38;;;;;;;3.16;98.84;100758.38;4970456;28;20031;-94
2022/01/05 15:43:40;;;;;;;25.08;4.80;;;;;;;3.09;99.12;100769.91;4971361;28;20038;-92
2022/01/05 15:46:09;;;;;;;16.98;4.80;;;;;;;3.14;98.92;100775.97;4966591;28;20041;-89
2022/01/05 15:48:34;;;;;;;22.77;5.53;;;;;;;3.12;99.90;100788.25;5061757;23;20108;-91
2022/01/05 15:51:00;;;;;;;21.50;4.78;;;;;;;3.17;100.00;100799.53;4996050;28;20468;-93
2022/01/05 15:53:25;;;;;;;22.35;5.15;;;;;;;3.16;100.00;100800.44;4974098;28;20034;-91
2022/01/05 15:56:06;;;;;;;20.35;4.65;;;;;;;3.04;100.00;100782.28;4973907;28;20384;-95
2022/01/05 16:01:27;;;;;;;18.00;4.53;;;;;;;3.03;100.00;100798.13;4985527;28;20041;-94
2022/01/05 16:03:55;;;;;;;25.55;4.95;;;;;;;3.05;99.68;100807.69;4990453;28;20039;-93
2022/01/05 16:06:20;;;;;;;26.00;4.65;;;;;;;2.99;99.87;100800.81;4991711;28;20542;-96
2022/01/05 16:08:46;;;;;;;18.80;4.32;;;;;;;2.95;100.00;100817.53;4978276;28;20027;-83
2022/01/05 16:11:13;;;;;;;21.60;5.22;;;;;;;2.92;100.00;100816.72;4968853;28;20082;-82
2022/01/05 16:13:39;;;;;;;20.00;5.15;;;;;;;2.88;100.00;100829.06;4976145;28;20038;-82
2022/01/05 16:16:05;;;;;;;24.30;6.93;;;;;;;2.98;100.00;100828.00;4968388;28;20034;-81